sensor_id;sensor_type;location;lat;lon;timestamp;P1;durP1;ratioP1;P2;durP2;ratioP2
42704;SDS011;28342;42.594;23.414;2023-01-24T00:00:30;10.43;;;4.95;;
42704;SDS011;28342;42.594;23.414;2023-01-24T00:02:55;10.88;;;5.35;;
42704;SDS011;28342;42.594;23.414;2023-01-24T00:05:21;9.27;;;5.05;;
42704;SDS011;28342;42.594;23.414;2023-01-24T00:07:46;8.23;;;4.85;;
42704;SDS011;28342;42.594;23.414;2023-01-24T00:10:12;11.02;;;5.22;;
42704;SDS011;28342;42.594;23.414;2023-01-24T00:12:38;8.85;;;4.60;;
42704;SDS011;28342;42.594;23.414;2023-01-24T00:15:03;10.43;;;5.72;;
42704;SDS011;28342;42.594;23.414;2023-01-24T00:17:29;8.05;;;4.50;;
42704;SDS011;28342;42.594;23.414;2023-01-24T00:19:55;9.43;;;5.93;;
42704;SDS011;28342;42.594;23.414;2023-01-24T00:22:20;12.55;;;6.13;;
42704;SDS011;28342;42.594;23.414;2023-01-24T00:24:46;8.05;;;4.47;;
42704;SDS011;28342;42.594;23.414;2023-01-24T00:27:13;10.50;;;5.90;;
42704;SDS011;28342;42.594;23.414;2023-01-24T00:29:39;11.10;;;5.40;;
42704;SDS011;28342;42.594;23.414;2023-01-24T00:32:04;10.90;;;5.28;;
42704;SDS011;28342;42.594;23.414;2023-01-24T00:34:30;10.13;;;5.57;;
42704;SDS011;28342;42.594;23.414;2023-01-24T00:36:55;10.90;;;5.15;;
42704;SDS011;28342;42.594;23.414;2023-01-24T00:39:21;9.45;;;5.20;;
42704;SDS011;28342;42.594;23.414;2023-01-24T00:41:46;11.43;;;5.45;;
42704;SDS011;28342;42.594;23.414;2023-01-24T00:44:12;12.40;;;5.22;;
42704;SDS011;28342;42.594;23.414;2023-01-24T00:46:37;12.48;;;5.75;;
42704;SDS011;28342;42.594;23.414;2023-01-24T00:49:03;10.60;;;5.40;;
42704;SDS011;28342;42.594;23.414;2023-01-24T00:51:28;12.15;;;5.60;;
42704;SDS011;28342;42.594;23.414;2023-01-24T00:53:53;12.48;;;5.90;;
42704;SDS011;28342;42.594;23.414;2023-01-24T00:56:19;13.05;;;6.82;;
42704;SDS011;28342;42.594;23.414;2023-01-24T00:58:44;10.95;;;5.80;;
42704;SDS011;28342;42.594;23.414;2023-01-24T01:01:10;14.82;;;6.03;;
42704;SDS011;28342;42.594;23.414;2023-01-24T01:03:35;13.13;;;6.05;;
42704;SDS011;28342;42.594;23.414;2023-01-24T01:06:02;16.67;;;7.20;;
42704;SDS011;28342;42.594;23.414;2023-01-24T01:08:30;14.68;;;6.18;;
42704;SDS011;28342;42.594;23.414;2023-01-24T01:10:56;10.05;;;5.70;;
42704;SDS011;28342;42.594;23.414;2023-01-24T01:13:22;11.60;;;5.72;;
42704;SDS011;28342;42.594;23.414;2023-01-24T01:15:48;14.55;;;6.75;;
42704;SDS011;28342;42.594;23.414;2023-01-24T01:18:13;11.82;;;5.50;;
42704;SDS011;28342;42.594;23.414;2023-01-24T01:20:39;12.80;;;6.20;;
42704;SDS011;28342;42.594;23.414;2023-01-24T01:23:04;12.82;;;6.47;;
42704;SDS011;28342;42.594;23.414;2023-01-24T01:25:30;12.98;;;6.45;;
42704;SDS011;28342;42.594;23.414;2023-01-24T01:27:56;12.07;;;6.18;;
42704;SDS011;28342;42.594;23.414;2023-01-24T01:30:21;13.93;;;6.63;;
42704;SDS011;28342;42.594;23.414;2023-01-24T01:32:48;13.27;;;6.53;;
42704;SDS011;28342;42.594;23.414;2023-01-24T01:35:13;12.80;;;6.13;;
42704;SDS011;28342;42.594;23.414;2023-01-24T01:37:39;10.80;;;6.00;;
42704;SDS011;28342;42.594;23.414;2023-01-24T01:40:05;13.50;;;7.13;;
42704;SDS011;28342;42.594;23.414;2023-01-24T01:42:40;13.98;;;7.32;;
42704;SDS011;28342;42.594;23.414;2023-01-24T01:50:50;12.63;;;6.88;;
42704;SDS011;28342;42.594;23.414;2023-01-24T01:53:37;15.07;;;7.43;;
42704;SDS011;28342;42.594;23.414;2023-01-24T01:56:34;12.05;;;6.63;;
42704;SDS011;28342;42.594;23.414;2023-01-24T01:59:11;11.80;;;5.75;;
42704;SDS011;28342;42.594;23.414;2023-01-24T02:01:43;13.02;;;6.13;;
42704;SDS011;28342;42.594;23.414;2023-01-24T02:04:12;12.30;;;6.22;;
42704;SDS011;28342;42.594;23.414;2023-01-24T02:09:12;20.70;;;8.88;;
42704;SDS011;28342;42.594;23.414;2023-01-24T02:11:43;47.13;;;16.77;;
42704;SDS011;28342;42.594;23.414;2023-01-24T02:14:10;37.05;;;13.95;;
42704;SDS011;28342;42.594;23.414;2023-01-24T02:16:56;22.10;;;9.20;;
42704;SDS011;28342;42.594;23.414;2023-01-24T02:19:32;16.70;;;6.90;;
42704;SDS011;28342;42.594;23.414;2023-01-24T02:22:01;10.45;;;5.55;;
42704;SDS011;28342;42.594;23.414;2023-01-24T02:24:39;9.85;;;5.47;;
42704;SDS011;28342;42.594;23.414;2023-01-24T02:27:10;12.30;;;5.30;;
42704;SDS011;28342;42.594;23.414;2023-01-24T02:29:36;10.52;;;5.43;;
42704;SDS011;28342;42.594;23.414;2023-01-24T02:32:02;10.40;;;5.53;;
42704;SDS011;28342;42.594;23.414;2023-01-24T02:34:31;8.90;;;5.45;;
42704;SDS011;28342;42.594;23.414;2023-01-24T02:36:58;7.45;;;4.32;;
42704;SDS011;28342;42.594;23.414;2023-01-24T02:39:29;7.78;;;4.05;;
42704;SDS011;28342;42.594;23.414;2023-01-24T02:42:01;7.53;;;4.20;;
42704;SDS011;28342;42.594;23.414;2023-01-24T02:44:34;9.05;;;4.55;;
42704;SDS011;28342;42.594;23.414;2023-01-24T02:47:11;5.22;;;3.35;;
42704;SDS011;28342;42.594;23.414;2023-01-24T02:49:37;7.40;;;4.03;;
42704;SDS011;28342;42.594;23.414;2023-01-24T02:52:02;7.47;;;3.90;;
42704;SDS011;28342;42.594;23.414;2023-01-24T02:54:47;6.30;;;3.85;;
42704;SDS011;28342;42.594;23.414;2023-01-24T02:57:13;6.55;;;3.90;;
42704;SDS011;28342;42.594;23.414;2023-01-24T02:59:57;6.60;;;4.30;;
42704;SDS011;28342;42.594;23.414;2023-01-24T03:02:23;6.18;;;3.85;;
42704;SDS011;28342;42.594;23.414;2023-01-24T03:04:48;6.95;;;3.70;;
42704;SDS011;28342;42.594;23.414;2023-01-24T03:07:14;9.90;;;4.95;;
42704;SDS011;28342;42.594;23.414;2023-01-24T03:09:40;5.60;;;3.40;;
42704;SDS011;28342;42.594;23.414;2023-01-24T03:12:11;6.05;;;3.35;;
42704;SDS011;28342;42.594;23.414;2023-01-24T03:14:55;5.95;;;3.30;;
42704;SDS011;28342;42.594;23.414;2023-01-24T03:17:40;4.65;;;3.17;;
42704;SDS011;28342;42.594;23.414;2023-01-24T03:20:24;5.68;;;3.50;;
42704;SDS011;28342;42.594;23.414;2023-01-24T03:23:08;7.18;;;3.58;;
42704;SDS011;28342;42.594;23.414;2023-01-24T03:25:53;5.40;;;3.90;;
42704;SDS011;28342;42.594;23.414;2023-01-24T03:28:40;6.95;;;3.35;;
42704;SDS011;28342;42.594;23.414;2023-01-24T03:31:24;8.18;;;3.65;;
42704;SDS011;28342;42.594;23.414;2023-01-24T03:34:09;4.90;;;3.40;;
42704;SDS011;28342;42.594;23.414;2023-01-24T03:36:52;5.20;;;3.45;;
42704;SDS011;28342;42.594;23.414;2023-01-24T03:39:18;4.32;;;3.40;;
42704;SDS011;28342;42.594;23.414;2023-01-24T03:42:02;6.30;;;3.35;;
42704;SDS011;28342;42.594;23.414;2023-01-24T03:44:28;4.72;;;3.75;;
42704;SDS011;28342;42.594;23.414;2023-01-24T03:46:53;5.55;;;3.97;;
42704;SDS011;28342;42.594;23.414;2023-01-24T03:49:19;4.80;;;3.35;;
42704;SDS011;28342;42.594;23.414;2023-01-24T03:51:44;6.25;;;3.65;;
42704;SDS011;28342;42.594;23.414;2023-01-24T03:54:28;4.93;;;3.50;;
42704;SDS011;28342;42.594;23.414;2023-01-24T03:56:54;7.22;;;3.90;;
42704;SDS011;28342;42.594;23.414;2023-01-24T03:59:19;6.80;;;4.53;;
42704;SDS011;28342;42.594;23.414;2023-01-24T04:01:45;5.43;;;3.65;;
42704;SDS011;28342;42.594;23.414;2023-01-24T04:04:10;5.75;;;3.78;;
42704;SDS011;28342;42.594;23.414;2023-01-24T04:09:22;5.47;;;3.67;;
42704;SDS011;28342;42.594;23.414;2023-01-24T04:11:47;6.65;;;4.47;;
42704;SDS011;28342;42.594;23.414;2023-01-24T04:14:13;7.63;;;4.30;;
42704;SDS011;28342;42.594;23.414;2023-01-24T04:16:38;6.85;;;4.30;;
42704;SDS011;28342;42.594;23.414;2023-01-24T04:19:04;5.85;;;3.97;;
42704;SDS011;28342;42.594;23.414;2023-01-24T04:21:29;5.88;;;3.45;;
42704;SDS011;28342;42.594;23.414;2023-01-24T04:23:55;5.95;;;3.90;;
42704;SDS011;28342;42.594;23.414;2023-01-24T04:26:21;4.93;;;3.50;;
42704;SDS011;28342;42.594;23.414;2023-01-24T04:28:46;5.00;;;3.58;;
42704;SDS011;28342;42.594;23.414;2023-01-24T04:31:11;8.38;;;3.75;;
42704;SDS011;28342;42.594;23.414;2023-01-24T04:33:37;6.80;;;4.35;;
42704;SDS011;28342;42.594;23.414;2023-01-24T04:36:02;6.18;;;3.67;;
42704;SDS011;28342;42.594;23.414;2023-01-24T04:38:28;5.50;;;3.60;;
42704;SDS011;28342;42.594;23.414;2023-01-24T04:41:00;6.00;;;3.90;;
42704;SDS011;28342;42.594;23.414;2023-01-24T04:43:26;4.85;;;3.47;;
42704;SDS011;28342;42.594;23.414;2023-01-24T04:45:56;10.15;;;4.63;;
42704;SDS011;28342;42.594;23.414;2023-01-24T04:48:22;6.78;;;4.32;;
42704;SDS011;28342;42.594;23.414;2023-01-24T04:50:47;8.32;;;5.20;;
42704;SDS011;28342;42.594;23.414;2023-01-24T04:53:13;8.00;;;4.78;;
42704;SDS011;28342;42.594;23.414;2023-01-24T04:55:38;4.35;;;3.42;;
42704;SDS011;28342;42.594;23.414;2023-01-24T04:58:03;4.88;;;3.75;;
42704;SDS011;28342;42.594;23.414;2023-01-24T05:00:29;5.55;;;4.05;;
42704;SDS011;28342;42.594;23.414;2023-01-24T05:02:54;6.78;;;4.40;;
42704;SDS011;28342;42.594;23.414;2023-01-24T05:05:20;6.30;;;4.07;;
42704;SDS011;28342;42.594;23.414;2023-01-24T05:07:45;7.38;;;3.83;;
42704;SDS011;28342;42.594;23.414;2023-01-24T05:10:10;5.80;;;4.25;;
42704;SDS011;28342;42.594;23.414;2023-01-24T05:12:36;5.97;;;3.78;;
42704;SDS011;28342;42.594;23.414;2023-01-24T05:15:02;6.57;;;4.47;;
42704;SDS011;28342;42.594;23.414;2023-01-24T05:17:28;6.63;;;4.28;;
42704;SDS011;28342;42.594;23.414;2023-01-24T05:19:53;6.70;;;4.28;;
42704;SDS011;28342;42.594;23.414;2023-01-24T05:22:19;5.55;;;4.43;;
42704;SDS011;28342;42.594;23.414;2023-01-24T05:24:44;6.68;;;4.75;;
42704;SDS011;28342;42.594;23.414;2023-01-24T05:27:09;7.25;;;4.40;;
42704;SDS011;28342;42.594;23.414;2023-01-24T05:29:35;10.18;;;4.80;;
42704;SDS011;28342;42.594;23.414;2023-01-24T05:32:00;9.13;;;4.07;;
42704;SDS011;28342;42.594;23.414;2023-01-24T05:34:26;9.35;;;4.45;;
42704;SDS011;28342;42.594;23.414;2023-01-24T05:36:51;8.55;;;4.70;;
42704;SDS011;28342;42.594;23.414;2023-01-24T05:39:16;7.70;;;4.70;;
42704;SDS011;28342;42.594;23.414;2023-01-24T05:41:42;10.05;;;5.20;;
42704;SDS011;28342;42.594;23.414;2023-01-24T05:44:07;8.63;;;4.57;;
42704;SDS011;28342;42.594;23.414;2023-01-24T05:46:33;7.50;;;4.93;;
42704;SDS011;28342;42.594;23.414;2023-01-24T05:48:58;7.30;;;4.63;;
42704;SDS011;28342;42.594;23.414;2023-01-24T05:51:23;10.20;;;4.70;;
42704;SDS011;28342;42.594;23.414;2023-01-24T05:53:49;7.07;;;4.65;;
42704;SDS011;28342;42.594;23.414;2023-01-24T05:56:18;9.65;;;5.38;;
42704;SDS011;28342;42.594;23.414;2023-01-24T05:58:44;9.73;;;5.00;;
42704;SDS011;28342;42.594;23.414;2023-01-24T06:01:16;8.00;;;4.90;;
42704;SDS011;28342;42.594;23.414;2023-01-24T06:03:43;8.05;;;5.32;;
42704;SDS011;28342;42.594;23.414;2023-01-24T06:06:11;7.78;;;4.57;;
42704;SDS011;28342;42.594;23.414;2023-01-24T06:08:38;9.90;;;5.07;;
42704;SDS011;28342;42.594;23.414;2023-01-24T06:11:05;7.63;;;5.03;;
42704;SDS011;28342;42.594;23.414;2023-01-24T06:13:37;6.83;;;4.60;;
42704;SDS011;28342;42.594;23.414;2023-01-24T06:16:03;7.65;;;4.90;;
42704;SDS011;28342;42.594;23.414;2023-01-24T06:18:34;8.60;;;5.82;;
42704;SDS011;28342;42.594;23.414;2023-01-24T06:21:04;10.48;;;6.15;;
42704;SDS011;28342;42.594;23.414;2023-01-24T06:23:45;12.68;;;7.47;;
42704;SDS011;28342;42.594;23.414;2023-01-24T06:26:10;10.73;;;6.60;;
42704;SDS011;28342;42.594;23.414;2023-01-24T06:28:37;7.30;;;5.25;;
42704;SDS011;28342;42.594;23.414;2023-01-24T06:33:35;9.98;;;6.10;;
42704;SDS011;28342;42.594;23.414;2023-01-24T06:38:56;11.45;;;6.00;;
42704;SDS011;28342;42.594;23.414;2023-01-24T06:41:22;8.70;;;4.85;;
42704;SDS011;28342;42.594;23.414;2023-01-24T06:43:48;10.02;;;5.40;;
42704;SDS011;28342;42.594;23.414;2023-01-24T06:46:14;6.78;;;4.85;;
42704;SDS011;28342;42.594;23.414;2023-01-24T06:48:41;8.77;;;5.25;;
42704;SDS011;28342;42.594;23.414;2023-01-24T06:51:09;6.63;;;4.13;;
42704;SDS011;28342;42.594;23.414;2023-01-24T06:53:39;8.20;;;5.03;;
42704;SDS011;28342;42.594;23.414;2023-01-24T06:56:05;6.55;;;4.60;;
42704;SDS011;28342;42.594;23.414;2023-01-24T06:58:31;8.50;;;5.45;;
42704;SDS011;28342;42.594;23.414;2023-01-24T07:00:57;7.00;;;5.10;;
42704;SDS011;28342;42.594;23.414;2023-01-24T07:03:22;8.80;;;4.90;;
42704;SDS011;28342;42.594;23.414;2023-01-24T07:05:47;9.73;;;6.32;;
42704;SDS011;28342;42.594;23.414;2023-01-24T07:08:13;10.85;;;6.47;;
42704;SDS011;28342;42.594;23.414;2023-01-24T07:10:39;11.32;;;6.70;;
42704;SDS011;28342;42.594;23.414;2023-01-24T07:13:04;16.67;;;9.40;;
42704;SDS011;28342;42.594;23.414;2023-01-24T07:15:30;12.45;;;6.82;;
42704;SDS011;28342;42.594;23.414;2023-01-24T07:17:56;9.70;;;5.85;;
42704;SDS011;28342;42.594;23.414;2023-01-24T07:20:22;9.05;;;6.50;;
42704;SDS011;28342;42.594;23.414;2023-01-24T07:22:47;11.95;;;6.18;;
42704;SDS011;28342;42.594;23.414;2023-01-24T07:25:18;8.40;;;6.03;;
42704;SDS011;28342;42.594;23.414;2023-01-24T07:27:45;11.18;;;6.13;;
42704;SDS011;28342;42.594;23.414;2023-01-24T07:30:11;11.95;;;7.10;;
42704;SDS011;28342;42.594;23.414;2023-01-24T07:32:38;8.05;;;5.70;;
42704;SDS011;28342;42.594;23.414;2023-01-24T07:35:04;11.88;;;6.88;;
42704;SDS011;28342;42.594;23.414;2023-01-24T07:37:30;7.75;;;5.85;;
42704;SDS011;28342;42.594;23.414;2023-01-24T07:39:56;8.93;;;5.45;;
42704;SDS011;28342;42.594;23.414;2023-01-24T07:42:21;10.10;;;5.32;;
42704;SDS011;28342;42.594;23.414;2023-01-24T07:44:47;11.25;;;7.25;;
42704;SDS011;28342;42.594;23.414;2023-01-24T07:47:12;10.73;;;6.80;;
42704;SDS011;28342;42.594;23.414;2023-01-24T07:49:38;11.25;;;6.72;;
42704;SDS011;28342;42.594;23.414;2023-01-24T07:52:03;11.93;;;7.72;;
42704;SDS011;28342;42.594;23.414;2023-01-24T07:54:29;10.52;;;6.95;;
42704;SDS011;28342;42.594;23.414;2023-01-24T07:56:54;10.07;;;6.65;;
42704;SDS011;28342;42.594;23.414;2023-01-24T07:59:20;8.18;;;5.68;;
42704;SDS011;28342;42.594;23.414;2023-01-24T08:01:45;8.27;;;4.75;;
42704;SDS011;28342;42.594;23.414;2023-01-24T08:04:11;7.72;;;5.78;;
42704;SDS011;28342;42.594;23.414;2023-01-24T08:06:37;8.98;;;5.80;;
42704;SDS011;28342;42.594;23.414;2023-01-24T08:09:03;8.88;;;5.95;;
42704;SDS011;28342;42.594;23.414;2023-01-24T08:11:29;10.40;;;6.10;;
42704;SDS011;28342;42.594;23.414;2023-01-24T08:13:54;7.90;;;5.88;;
42704;SDS011;28342;42.594;23.414;2023-01-24T08:16:20;8.80;;;5.20;;
42704;SDS011;28342;42.594;23.414;2023-01-24T08:18:48;10.77;;;5.45;;
42704;SDS011;28342;42.594;23.414;2023-01-24T08:21:14;6.90;;;4.60;;
42704;SDS011;28342;42.594;23.414;2023-01-24T08:23:39;6.90;;;4.45;;
42704;SDS011;28342;42.594;23.414;2023-01-24T08:26:05;6.43;;;3.90;;
42704;SDS011;28342;42.594;23.414;2023-01-24T08:28:31;6.32;;;4.28;;
42704;SDS011;28342;42.594;23.414;2023-01-24T08:30:58;7.28;;;4.18;;
42704;SDS011;28342;42.594;23.414;2023-01-24T08:33:23;5.22;;;4.20;;
42704;SDS011;28342;42.594;23.414;2023-01-24T08:35:49;7.10;;;5.18;;
42704;SDS011;28342;42.594;23.414;2023-01-24T08:38:17;8.00;;;4.32;;
42704;SDS011;28342;42.594;23.414;2023-01-24T08:40:42;9.23;;;4.97;;
42704;SDS011;28342;42.594;23.414;2023-01-24T08:43:08;6.88;;;4.63;;
42704;SDS011;28342;42.594;23.414;2023-01-24T08:45:34;8.15;;;5.45;;
42704;SDS011;28342;42.594;23.414;2023-01-24T08:48:00;4.95;;;4.07;;
42704;SDS011;28342;42.594;23.414;2023-01-24T08:50:25;5.28;;;3.95;;
42704;SDS011;28342;42.594;23.414;2023-01-24T08:52:53;13.63;;;5.65;;
42704;SDS011;28342;42.594;23.414;2023-01-24T08:55:20;6.90;;;4.82;;
42704;SDS011;28342;42.594;23.414;2023-01-24T08:57:46;7.90;;;5.07;;
42704;SDS011;28342;42.594;23.414;2023-01-24T09:00:12;7.18;;;4.97;;
42704;SDS011;28342;42.594;23.414;2023-01-24T09:02:38;8.90;;;5.43;;
42704;SDS011;28342;42.594;23.414;2023-01-24T09:05:07;6.70;;;5.03;;
42704;SDS011;28342;42.594;23.414;2023-01-24T09:07:33;10.73;;;5.95;;
42704;SDS011;28342;42.594;23.414;2023-01-24T09:10:01;11.82;;;6.68;;
42704;SDS011;28342;42.594;23.414;2023-01-24T09:12:30;10.15;;;6.18;;
42704;SDS011;28342;42.594;23.414;2023-01-24T09:14:56;7.35;;;4.85;;
42704;SDS011;28342;42.594;23.414;2023-01-24T09:17:22;9.95;;;7.50;;
42704;SDS011;28342;42.594;23.414;2023-01-24T09:19:47;14.25;;;10.40;;
42704;SDS011;28342;42.594;23.414;2023-01-24T09:22:13;8.98;;;6.25;;
42704;SDS011;28342;42.594;23.414;2023-01-24T09:24:38;8.30;;;5.68;;
42704;SDS011;28342;42.594;23.414;2023-01-24T09:27:03;7.70;;;3.30;;
42704;SDS011;28342;42.594;23.414;2023-01-24T09:29:29;8.55;;;3.80;;
42704;SDS011;28342;42.594;23.414;2023-01-24T09:31:57;3.80;;;2.95;;
42704;SDS011;28342;42.594;23.414;2023-01-24T09:34:22;2.97;;;2.53;;
42704;SDS011;28342;42.594;23.414;2023-01-24T09:36:48;3.75;;;3.03;;
42704;SDS011;28342;42.594;23.414;2023-01-24T09:39:17;2.97;;;2.25;;
42704;SDS011;28342;42.594;23.414;2023-01-24T09:44:48;2.10;;;1.90;;
42704;SDS011;28342;42.594;23.414;2023-01-24T09:47:43;1.83;;;1.67;;
42704;SDS011;28342;42.594;23.414;2023-01-24T09:53:05;1.90;;;1.55;;
42704;SDS011;28342;42.594;23.414;2023-01-24T09:55:41;1.90;;;1.70;;
42704;SDS011;28342;42.594;23.414;2023-01-24T09:58:13;2.33;;;2.13;;
42704;SDS011;28342;42.594;23.414;2023-01-24T10:00:55;2.38;;;1.88;;
42704;SDS011;28342;42.594;23.414;2023-01-24T10:03:25;3.75;;;2.90;;
42704;SDS011;28342;42.594;23.414;2023-01-24T10:05:55;3.15;;;2.38;;
42704;SDS011;28342;42.594;23.414;2023-01-24T10:08:26;2.90;;;2.38;;
42704;SDS011;28342;42.594;23.414;2023-01-24T10:11:01;4.60;;;3.30;;
42704;SDS011;28342;42.594;23.414;2023-01-24T10:13:49;3.55;;;2.70;;
42704;SDS011;28342;42.594;23.414;2023-01-24T10:16:22;4.15;;;2.35;;
42704;SDS011;28342;42.594;23.414;2023-01-24T10:19:08;4.30;;;2.97;;
42704;SDS011;28342;42.594;23.414;2023-01-24T10:24:30;2.42;;;2.22;;
42704;SDS011;28342;42.594;23.414;2023-01-24T10:27:00;2.78;;;2.22;;
42704;SDS011;28342;42.594;23.414;2023-01-24T10:31:59;1.33;;;1.23;;
42704;SDS011;28342;42.594;23.414;2023-01-24T10:37:14;1.60;;;1.50;;
42704;SDS011;28342;42.594;23.414;2023-01-24T10:39:45;1.55;;;1.00;;
42704;SDS011;28342;42.594;23.414;2023-01-24T10:42:34;4.35;;;1.20;;
42704;SDS011;28342;42.594;23.414;2023-01-24T10:45:00;1.30;;;1.20;;
42704;SDS011;28342;42.594;23.414;2023-01-24T10:47:52;1.73;;;1.45;;
42704;SDS011;28342;42.594;23.414;2023-01-24T10:50:24;1.30;;;0.90;;
42704;SDS011;28342;42.594;23.414;2023-01-24T10:56:00;2.78;;;1.85;;
42704;SDS011;28342;42.594;23.414;2023-01-24T11:00:57;1.60;;;1.33;;
42704;SDS011;28342;42.594;23.414;2023-01-24T11:03:29;1.25;;;1.15;;
42704;SDS011;28342;42.594;23.414;2023-01-24T11:05:57;1.30;;;1.20;;
42704;SDS011;28342;42.594;23.414;2023-01-24T11:11:00;1.25;;;1.02;;
42704;SDS011;28342;42.594;23.414;2023-01-24T11:13:37;1.30;;;1.20;;
42704;SDS011;28342;42.594;23.414;2023-01-24T11:24:14;2.78;;;2.00;;
42704;SDS011;28342;42.594;23.414;2023-01-24T11:27:03;33.95;;;13.60;;
42704;SDS011;28342;42.594;23.414;2023-01-24T11:29:38;14.67;;;7.73;;
42704;SDS011;28342;42.594;23.414;2023-01-24T11:37:41;1.52;;;1.20;;
42704;SDS011;28342;42.594;23.414;2023-01-24T11:42:59;1.50;;;1.40;;
42704;SDS011;28342;42.594;23.414;2023-01-24T11:57:18;2.40;;;1.77;;
42704;SDS011;28342;42.594;23.414;2023-01-24T12:02:08;5.72;;;2.65;;
42704;SDS011;28342;42.594;23.414;2023-01-24T12:05:22;3.60;;;1.83;;
42704;SDS011;28342;42.594;23.414;2023-01-24T12:13:21;8.10;;;3.70;;
42704;SDS011;28342;42.594;23.414;2023-01-24T12:16:29;5.38;;;3.13;;
42704;SDS011;28342;42.594;23.414;2023-01-24T12:22:25;5.00;;;3.10;;
42704;SDS011;28342;42.594;23.414;2023-01-24T12:24:59;6.47;;;3.55;;
42704;SDS011;28342;42.594;23.414;2023-01-24T12:27:29;4.10;;;2.85;;
42704;SDS011;28342;42.594;23.414;2023-01-24T12:29:59;3.58;;;2.42;;
42704;SDS011;28342;42.594;23.414;2023-01-24T12:38:00;7.55;;;4.20;;
42704;SDS011;28342;42.594;23.414;2023-01-24T12:57:42;5.80;;;3.67;;
42704;SDS011;28342;42.594;23.414;2023-01-24T13:00:15;2.47;;;2.10;;
42704;SDS011;28342;42.594;23.414;2023-01-24T13:10:27;3.10;;;2.42;;
42704;SDS011;28342;42.594;23.414;2023-01-24T13:13:17;2.80;;;2.38;;
42704;SDS011;28342;42.594;23.414;2023-01-24T13:32:15;2.83;;;2.15;;
42704;SDS011;28342;42.594;23.414;2023-01-24T13:37:16;4.00;;;3.10;;
42704;SDS011;28342;42.594;23.414;2023-01-24T13:40:32;8.77;;;5.43;;
42704;SDS011;28342;42.594;23.414;2023-01-24T13:42:38;13.35;;;8.55;;
42704;SDS011;28342;42.594;23.414;2023-01-24T13:47:49;3.97;;;2.88;;
42704;SDS011;28342;42.594;23.414;2023-01-24T13:50:18;2.78;;;2.30;;
42704;SDS011;28342;42.594;23.414;2023-01-24T13:52:51;3.30;;;2.85;;
42704;SDS011;28342;42.594;23.414;2023-01-24T13:57:44;5.05;;;2.75;;
42704;SDS011;28342;42.594;23.414;2023-01-24T14:10:36;2.92;;;2.47;;
42704;SDS011;28342;42.594;23.414;2023-01-24T14:13:04;3.78;;;3.03;;
42704;SDS011;28342;42.594;23.414;2023-01-24T14:15:50;3.65;;;2.70;;
42704;SDS011;28342;42.594;23.414;2023-01-24T14:21:12;3.88;;;2.83;;
42704;SDS011;28342;42.594;23.414;2023-01-24T14:23:41;4.10;;;2.72;;
42704;SDS011;28342;42.594;23.414;2023-01-24T14:26:12;3.88;;;2.90;;
42704;SDS011;28342;42.594;23.414;2023-01-24T14:28:40;3.28;;;2.60;;
42704;SDS011;28342;42.594;23.414;2023-01-24T14:31:24;3.65;;;3.00;;
42704;SDS011;28342;42.594;23.414;2023-01-24T14:34:11;5.00;;;2.58;;
42704;SDS011;28342;42.594;23.414;2023-01-24T14:36:42;4.28;;;3.05;;
42704;SDS011;28342;42.594;23.414;2023-01-24T14:39:22;4.75;;;3.30;;
42704;SDS011;28342;42.594;23.414;2023-01-24T14:42:34;4.13;;;3.10;;
42704;SDS011;28342;42.594;23.414;2023-01-24T14:47:27;4.63;;;3.20;;
42704;SDS011;28342;42.594;23.414;2023-01-24T14:49:54;4.43;;;2.95;;
42704;SDS011;28342;42.594;23.414;2023-01-24T14:52:22;6.05;;;3.92;;
42704;SDS011;28342;42.594;23.414;2023-01-24T14:54:50;4.18;;;3.08;;
42704;SDS011;28342;42.594;23.414;2023-01-24T14:57:28;4.57;;;3.30;;
42704;SDS011;28342;42.594;23.414;2023-01-24T15:02:23;6.32;;;4.15;;
42704;SDS011;28342;42.594;23.414;2023-01-24T15:04:49;5.22;;;3.60;;
42704;SDS011;28342;42.594;23.414;2023-01-24T15:07:16;12.15;;;6.60;;
42704;SDS011;28342;42.594;23.414;2023-01-24T15:09:42;5.97;;;3.80;;
42704;SDS011;28342;42.594;23.414;2023-01-24T15:12:22;6.18;;;3.90;;
42704;SDS011;28342;42.594;23.414;2023-01-24T15:14:48;6.43;;;4.00;;
42704;SDS011;28342;42.594;23.414;2023-01-24T15:17:16;5.15;;;4.10;;
42704;SDS011;28342;42.594;23.414;2023-01-24T15:19:46;5.22;;;4.00;;
42704;SDS011;28342;42.594;23.414;2023-01-24T15:22:18;5.07;;;3.63;;
42704;SDS011;28342;42.594;23.414;2023-01-24T15:24:53;6.50;;;4.47;;
42704;SDS011;28342;42.594;23.414;2023-01-24T15:27:32;6.72;;;4.75;;
42704;SDS011;28342;42.594;23.414;2023-01-24T15:40:25;9.23;;;5.88;;
42704;SDS011;28342;42.594;23.414;2023-01-24T15:42:50;10.77;;;6.57;;
42704;SDS011;28342;42.594;23.414;2023-01-24T15:45:36;15.55;;;9.38;;
42704;SDS011;28342;42.594;23.414;2023-01-24T15:50:53;9.32;;;5.97;;
42704;SDS011;28342;42.594;23.414;2023-01-24T15:53:44;7.55;;;5.30;;
42704;SDS011;28342;42.594;23.414;2023-01-24T15:56:10;8.77;;;5.70;;
42704;SDS011;28342;42.594;23.414;2023-01-24T15:58:40;10.55;;;7.50;;
42704;SDS011;28342;42.594;23.414;2023-01-24T16:01:06;10.48;;;7.50;;
42704;SDS011;28342;42.594;23.414;2023-01-24T16:03:33;9.57;;;6.05;;
42704;SDS011;28342;42.594;23.414;2023-01-24T16:05:58;9.25;;;6.13;;
42704;SDS011;28342;42.594;23.414;2023-01-24T16:08:24;9.60;;;5.88;;
42704;SDS011;28342;42.594;23.414;2023-01-24T16:10:51;9.60;;;5.65;;
42704;SDS011;28342;42.594;23.414;2023-01-24T16:15:58;8.93;;;5.50;;
42704;SDS011;28342;42.594;23.414;2023-01-24T16:18:25;9.82;;;6.50;;
42704;SDS011;28342;42.594;23.414;2023-01-24T16:20:52;11.15;;;6.28;;
42704;SDS011;28342;42.594;23.414;2023-01-24T16:23:18;15.32;;;8.65;;
42704;SDS011;28342;42.594;23.414;2023-01-24T16:25:44;13.00;;;8.65;;
42704;SDS011;28342;42.594;23.414;2023-01-24T16:28:21;17.30;;;9.93;;
42704;SDS011;28342;42.594;23.414;2023-01-24T16:33:35;30.42;;;14.00;;
42704;SDS011;28342;42.594;23.414;2023-01-24T16:36:12;26.20;;;11.18;;
42704;SDS011;28342;42.594;23.414;2023-01-24T16:39:18;10.18;;;6.63;;
42704;SDS011;28342;42.594;23.414;2023-01-24T16:41:46;14.65;;;7.75;;
42704;SDS011;28342;42.594;23.414;2023-01-24T16:47:34;17.02;;;8.88;;
42704;SDS011;28342;42.594;23.414;2023-01-24T16:50:57;13.55;;;6.75;;
42704;SDS011;28342;42.594;23.414;2023-01-24T16:53:36;13.60;;;7.60;;
42704;SDS011;28342;42.594;23.414;2023-01-24T16:56:07;11.85;;;6.78;;
42704;SDS011;28342;42.594;23.414;2023-01-24T16:58:59;11.07;;;7.30;;
42704;SDS011;28342;42.594;23.414;2023-01-24T17:02:25;14.07;;;7.72;;
42704;SDS011;28342;42.594;23.414;2023-01-24T17:05:42;15.43;;;9.52;;
42704;SDS011;28342;42.594;23.414;2023-01-24T17:11:45;13.98;;;8.80;;
42704;SDS011;28342;42.594;23.414;2023-01-24T17:14:50;15.32;;;8.20;;
42704;SDS011;28342;42.594;23.414;2023-01-24T17:17:41;13.63;;;8.25;;
42704;SDS011;28342;42.594;23.414;2023-01-24T17:20:33;16.55;;;9.02;;
42704;SDS011;28342;42.594;23.414;2023-01-24T17:23:49;16.65;;;9.65;;
42704;SDS011;28342;42.594;23.414;2023-01-24T17:26:47;16.15;;;9.13;;
42704;SDS011;28342;42.594;23.414;2023-01-24T17:29:32;16.38;;;9.18;;
42704;SDS011;28342;42.594;23.414;2023-01-24T17:32:18;16.52;;;10.32;;
42704;SDS011;28342;42.594;23.414;2023-01-24T17:34:48;15.75;;;9.43;;
42704;SDS011;28342;42.594;23.414;2023-01-24T17:37:15;17.25;;;10.10;;
42704;SDS011;28342;42.594;23.414;2023-01-24T17:39:40;17.63;;;9.13;;
42704;SDS011;28342;42.594;23.414;2023-01-24T17:42:22;16.88;;;10.10;;
42704;SDS011;28342;42.594;23.414;2023-01-24T17:44:52;15.88;;;9.95;;
42704;SDS011;28342;42.594;23.414;2023-01-24T17:47:40;18.38;;;10.82;;